Time;durP1;ratioP1;P1;durP2;ratioP2;P2;SDS_P1;SDS_P2;PMS_P1;PMS_P2;Temp;Humidity;BMP_temperature;BMP_pressure;BME280_temperature;BME280_humidity;BME280_pressure;Samples;Min_cycle;Max_cycle;Signal;HPM_P1;HPM_P2
2021/12/23 00:00:42;;;;;;;37.83;19.27;;;1.10;57.20;;;;;;5093263;28;20195;-54
2021/12/23 00:03:07;;;;;;;36.23;18.83;;;1.00;57.10;;;;;;5091566;28;20304;-54
2021/12/23 00:05:33;;;;;;;32.47;18.63;;;1.10;57.20;;;;;;5093014;28;20245;-54
2021/12/23 00:07:59;;;;;;;29.37;18.20;;;1.20;56.80;;;;;;5093978;28;20236;-53
2021/12/23 00:10:25;;;;;;;35.80;19.13;;;1.40;57.40;;;;;;5092816;28;20188;-55
2021/12/23 00:12:50;;;;;;;26.13;16.30;;;1.60;56.40;;;;;;5093157;28;20187;-52
2021/12/23 00:18:17;;;;;;;33.67;18.60;;;1.50;55.80;;;;;;5093639;28;20197;-54
2021/12/23 00:25:48;;;;;;;32.00;17.87;;;1.10;56.70;;;;;;5092979;28;20484;-53
2021/12/23 00:28:13;;;;;;;30.37;18.30;;;1.00;57.40;;;;;;5091483;28;20421;-55
2021/12/23 00:30:39;;;;;;;34.70;18.93;;;1.20;57.50;;;;;;5092897;28;20474;-54
2021/12/23 00:33:05;;;;;;;33.23;19.60;;;1.20;57.40;;;;;;5092577;28;20716;-54
2021/12/23 00:35:30;;;;;;;35.50;19.73;;;1.00;57.20;;;;;;5092373;28;20205;-55
2021/12/23 00:38:01;;;;;;;36.83;19.80;;;1.00;57.50;;;;;;5093027;28;20871;-55
2021/12/23 00:40:27;;;;;;;30.67;16.80;;;1.00;57.60;;;;;;5091986;28;20202;-53
2021/12/23 00:42:53;;;;;;;30.20;19.23;;;1.20;57.20;;;;;;5092382;28;20422;-53
2021/12/23 00:45:19;;;;;;;28.43;17.73;;;1.30;56.80;;;;;;5092507;28;20254;-55
2021/12/23 00:47:44;;;;;;;34.60;18.33;;;1.40;56.80;;;;;;5092956;28;20179;-53
2021/12/23 00:50:10;;;;;;;33.53;19.63;;;1.60;56.40;;;;;;5092198;28;20908;-52
2021/12/23 00:52:37;;;;;;;32.93;18.90;;;1.50;56.00;;;;;;5092256;28;20707;-52
2021/12/23 00:55:05;;;;;;;31.30;18.17;;;1.40;56.10;;;;;;5090626;28;20206;-55
2021/12/23 00:57:32;;;;;;;28.20;16.50;;;1.40;56.10;;;;;;5089113;28;20418;-51
2021/12/23 00:59:59;;;;;;;30.37;17.57;;;1.10;56.40;;;;;;5091698;28;20549;-53
2021/12/23 01:02:29;;;;;;;35.60;18.27;;;0.90;57.10;;;;;;5092209;28;20824;-52
2021/12/23 01:04:56;;;;;;;33.80;19.43;;;0.80;58.00;;;;;;5091936;28;20540;-52
2021/12/23 01:07:21;;;;;;;36.20;19.60;;;0.80;57.40;;;;;;5092328;28;20429;-54
2021/12/23 01:09:47;;;;;;;29.40;18.40;;;1.00;57.60;;;;;;5091728;28;20772;-53
2021/12/23 01:12:15;;;;;;;29.47;17.77;;;1.20;57.00;;;;;;5092021;28;20698;-52
2021/12/23 01:15:09;;;;;;;34.50;19.37;;;1.30;56.70;;;;;;5092223;28;20214;-54
2021/12/23 01:17:53;;;;;;;30.80;17.63;;;1.40;56.30;;;;;;5092264;28;20429;-53
2021/12/23 01:20:25;;;;;;;28.23;17.47;;;1.40;56.20;;;;;;5091333;28;21003;-55
2021/12/23 01:22:50;;;;;;;33.87;17.60;;;1.30;56.20;;;;;;5090102;28;20428;-51
2021/12/23 01:25:16;;;;;;;33.00;19.43;;;1.30;56.30;;;;;;5090235;28;20496;-51
2021/12/23 01:27:42;;;;;;;35.60;18.30;;;1.00;56.80;;;;;;5092009;28;20198;-53
2021/12/23 01:30:08;;;;;;;27.83;16.77;;;0.90;57.10;;;;;;5092228;28;20195;-51
2021/12/23 01:32:33;;;;;;;36.13;18.67;;;0.90;57.40;;;;;;5091678;28;20202;-51
2021/12/23 01:34:59;;;;;;;32.83;17.63;;;0.70;57.60;;;;;;5091190;28;20421;-52
2021/12/23 01:37:24;;;;;;;31.83;18.90;;;0.60;58.00;;;;;;5091647;28;20678;-50
2021/12/23 01:39:50;;;;;;;27.97;16.10;;;0.60;58.20;;;;;;5091184;28;20266;-51
2021/12/23 01:42:16;;;;;;;32.40;17.53;;;0.50;58.60;;;;;;5091412;28;20195;-51
2021/12/23 01:44:41;;;;;;;34.37;19.03;;;0.60;58.30;;;;;;5091418;28;20183;-51
2021/12/23 01:47:07;;;;;;;37.00;17.67;;;0.30;58.60;;;;;;5091216;28;20642;-52
2021/12/23 01:49:32;;;;;;;33.77;18.20;;;0.10;59.50;;;;;;5089968;28;20194;-51
2021/12/23 01:51:58;;;;;;;32.53;19.10;;;0.10;59.70;;;;;;5090222;28;20563;-51
2021/12/23 01:54:23;;;;;;;29.83;17.97;;;0.20;59.80;;;;;;5091300;28;20195;-51
2021/12/23 01:56:49;;;;;;;31.53;17.80;;;0.40;59.40;;;;;;5087460;28;20604;-51
2021/12/23 01:59:15;;;;;;;31.70;18.77;;;0.60;58.90;;;;;;5091071;28;20214;-53
2021/12/23 02:01:41;;;;;;;31.43;17.53;;;0.70;58.50;;;;;;5091068;28;20429;-52
2021/12/23 02:04:07;;;;;;;31.40;16.87;;;0.90;58.40;;;;;;5089650;28;20719;-51
2021/12/23 02:06:33;;;;;;;34.27;18.37;;;1.00;58.00;;;;;;5090989;28;20477;-51
2021/12/23 02:08:58;;;;;;;30.50;17.57;;;1.20;57.60;;;;;;5091142;28;20798;-52
2021/12/23 02:11:24;;;;;;;28.13;17.17;;;1.20;57.20;;;;;;5090922;28;20244;-52
2021/12/23 02:13:50;;;;;;;37.43;19.57;;;1.30;57.10;;;;;;5091013;28;20270;-51
2021/12/23 02:16:16;;;;;;;27.43;17.03;;;1.30;57.20;;;;;;5088070;28;20203;-54
2021/12/23 02:18:42;;;;;;;26.60;17.17;;;1.20;57.20;;;;;;5091487;28;20461;-51
2021/12/23 02:21:07;;;;;;;32.63;18.03;;;1.20;57.20;;;;;;5090384;28;20686;-52
2021/12/23 02:23:34;;;;;;;28.47;17.37;;;1.20;57.30;;;;;;5090945;28;20198;-53
2021/12/23 02:26:00;;;;;;;31.30;19.13;;;1.20;57.20;;;;;;5090724;28;20381;-52
2021/12/23 02:28:27;;;;;;;36.80;18.97;;;1.10;57.20;;;;;;5091104;28;21119;-51
2021/12/23 02:30:53;;;;;;;31.10;18.43;;;1.10;57.10;;;;;;5090835;28;20569;-51
2021/12/23 02:33:24;;;;;;;31.60;17.47;;;0.90;57.30;;;;;;5090905;28;20424;-51
2021/12/23 02:35:52;;;;;;;27.60;16.10;;;0.80;57.70;;;;;;5090276;28;20426;-51
2021/12/23 02:38:18;;;;;;;29.37;17.20;;;0.70;58.10;;;;;;5090851;28;20461;-50
2021/12/23 02:40:44;;;;;;;29.33;16.30;;;0.80;58.00;;;;;;5090369;28;20452;-53
2021/12/23 02:43:18;;;;;;;25.60;16.40;;;0.90;57.90;;;;;;5086124;28;20218;-54
2021/12/23 02:45:46;;;;;;;27.63;16.27;;;1.10;57.50;;;;;;5090451;28;20573;-54
2021/12/23 02:48:14;;;;;;;33.80;18.40;;;1.30;56.90;;;;;;5090779;28;20430;-51
2021/12/23 02:50:41;;;;;;;36.07;18.10;;;1.20;56.70;;;;;;5090552;28;20413;-54
2021/12/23 02:53:07;;;;;;;30.17;18.20;;;1.00;57.00;;;;;;5090580;28;20905;-52
2021/12/23 02:55:33;;;;;;;33.57;17.80;;;1.10;57.30;;;;;;5090235;28;20425;-51
2021/12/23 02:57:58;;;;;;;30.03;17.00;;;1.10;57.00;;;;;;5090934;28;20564;-53
2021/12/23 03:00:24;;;;;;;32.00;18.20;;;1.10;56.80;;;;;;5089957;28;20557;-54
2021/12/23 03:02:49;;;;;;;31.17;18.17;;;1.10;56.90;;;;;;5090496;28;20217;-51
2021/12/23 03:05:15;;;;;;;27.37;17.60;;;1.10;56.70;;;;;;5093746;28;20271;-54
2021/12/23 03:07:41;;;;;;;30.27;18.37;;;1.00;57.00;;;;;;5094897;28;20199;-53
2021/12/23 03:10:08;;;;;;;33.20;18.10;;;1.10;57.10;;;;;;5092432;28;20278;-54
2021/12/23 03:12:34;;;;;;;31.60;17.70;;;1.10;56.80;;;;;;5093914;28;20195;-53
2021/12/23 03:15:00;;;;;;;29.00;16.73;;;1.00;56.80;;;;;;5094171;28;20453;-51
2021/12/23 03:17:26;;;;;;;32.20;18.03;;;0.80;57.20;;;;;;5094830;28;20421;-52
2021/12/23 03:19:52;;;;;;;35.30;18.07;;;0.60;57.60;;;;;;5093855;28;21614;-52
2021/12/23 03:22:18;;;;;;;29.27;16.37;;;0.60;57.90;;;;;;5094062;28;20500;-52
2021/12/23 03:24:44;;;;;;;30.07;17.53;;;0.60;58.00;;;;;;5093975;28;20232;-54
2021/12/23 03:27:10;;;;;;;29.83;18.60;;;0.80;57.80;;;;;;5094375;28;20472;-50
2021/12/23 03:29:35;;;;;;;32.47;17.20;;;0.60;57.70;;;;;;5094463;28;20927;-52
2021/12/23 03:32:01;;;;;;;30.27;18.03;;;0.30;58.10;;;;;;5093504;28;20933;-52
2021/12/23 03:34:27;;;;;;;34.23;20.43;;;0.20;58.90;;;;;;5094356;28;20544;-54
2021/12/23 03:36:52;;;;;;;29.03;16.93;;;0.30;59.10;;;;;;5091943;28;20196;-54
2021/12/23 03:39:19;;;;;;;31.40;15.83;;;0.30;59.20;;;;;;5094027;28;20191;-53
2021/12/23 03:41:45;;;;;;;28.90;16.80;;;0.50;59.00;;;;;;5092989;28;20191;-54
2021/12/23 03:44:11;;;;;;;27.07;16.90;;;0.80;58.50;;;;;;5090618;28;20429;-53
2021/12/23 03:46:38;;;;;;;27.47;17.93;;;1.10;57.80;;;;;;5093513;28;20483;-55
2021/12/23 03:49:05;;;;;;;27.60;16.83;;;0.90;57.30;;;;;;5093850;28;20183;-51
2021/12/23 03:51:31;;;;;;;30.60;17.93;;;1.00;57.10;;;;;;5093407;28;20977;-52
2021/12/23 03:53:57;;;;;;;27.23;16.97;;;1.00;57.10;;;;;;5093506;28;20479;-54
2021/12/23 03:56:22;;;;;;;26.87;16.43;;;1.10;57.10;;;;;;5093617;28;20195;-53
2021/12/23 03:58:48;;;;;;;29.60;16.63;;;1.10;56.90;;;;;;5093715;28;20219;-53
2021/12/23 04:01:14;;;;;;;30.53;16.07;;;1.00;56.90;;;;;;5093109;28;20219;-55
2021/12/23 04:03:39;;;;;;;29.63;17.33;;;1.00;56.90;;;;;;5092413;28;20577;-54
2021/12/23 04:06:05;;;;;;;36.83;17.73;;;0.90;57.00;;;;;;5093053;28;20754;-54
2021/12/23 04:08:31;;;;;;;32.40;18.40;;;0.90;57.10;;;;;;5093462;28;20191;-54
2021/12/23 04:10:59;;;;;;;26.43;16.37;;;0.80;57.40;;;;;;5093122;28;20650;-51
2021/12/23 04:13:28;;;;;;;33.70;19.73;;;0.50;57.80;;;;;;5093249;28;20642;-52
2021/12/23 04:15:54;;;;;;;29.50;16.50;;;0.40;58.60;;;;;;5092310;28;20529;-53
2021/12/23 04:18:19;;;;;;;32.53;16.70;;;0.50;58.90;;;;;;5093326;28;20504;-52
2021/12/23 04:20:54;;;;;;;29.77;17.07;;;0.40;58.90;;;;;;5092983;28;20195;-51
2021/12/23 04:23:25;;;;;;;32.17;17.57;;;0.40;58.90;;;;;;5093052;28;20607;-51
2021/12/23 04:25:52;;;;;;;26.97;15.60;;;0.50;58.90;;;;;;5092895;28;20480;-51
2021/12/23 04:28:19;;;;;;;29.40;17.03;;;0.60;58.80;;;;;;5091359;28;20425;-53
2021/12/23 04:30:44;;;;;;;33.50;18.27;;;0.60;58.50;;;;;;5092914;28;20482;-50
2021/12/23 04:33:11;;;;;;;33.97;17.70;;;0.70;58.60;;;;;;5092951;28;20908;-53
2021/12/23 04:35:37;;;;;;;28.33;15.93;;;0.90;58.20;;;;;;5092775;28;20248;-52
2021/12/23 04:38:02;;;;;;;26.13;15.60;;;1.00;57.90;;;;;;5092906;28;20425;-54
2021/12/23 04:40:30;;;;;;;29.93;16.40;;;1.10;57.60;;;;;;5092634;28;20433;-53
2021/12/23 04:42:56;;;;;;;28.87;16.57;;;1.20;57.40;;;;;;5088939;28;20183;-53
2021/12/23 04:45:22;;;;;;;29.77;17.60;;;1.40;57.10;;;;;;5092334;28;20493;-54
2021/12/23 04:47:48;;;;;;;30.83;15.63;;;1.30;57.00;;;;;;5092965;28;20985;-51
2021/12/23 04:50:15;;;;;;;33.30;18.00;;;1.30;57.30;;;;;;5092476;28;20277;-54
2021/12/23 04:52:42;;;;;;;28.47;17.03;;;1.20;57.20;;;;;;5092657;28;20258;-52
2021/12/23 04:55:09;;;;;;;29.73;16.83;;;1.30;57.20;;;;;;5090430;28;20803;-55
2021/12/23 04:57:35;;;;;;;29.90;18.53;;;1.60;57.00;;;;;;5092451;28;20465;-55
2021/12/23 05:00:02;;;;;;;31.50;17.00;;;1.60;56.50;;;;;;5092031;28;20795;-54
2021/12/23 05:02:27;;;;;;;31.83;18.00;;;1.60;57.10;;;;;;5092345;28;20453;-53
2021/12/23 05:04:53;;;;;;;38.50;19.63;;;1.50;56.50;;;;;;5091893;28;20519;-54
2021/12/23 05:07:19;;;;;;;29.23;17.10;;;1.50;56.60;;;;;;5092538;28;20248;-52
2021/12/23 05:09:45;;;;;;;27.63;17.60;;;1.70;56.70;;;;;;5091989;28;20195;-54
2021/12/23 05:12:11;;;;;;;33.83;20.27;;;1.80;56.20;;;;;;5090764;28;20940;-50
2021/12/23 05:14:37;;;;;;;31.83;18.97;;;1.40;56.20;;;;;;5092488;28;20455;-54
2021/12/23 05:17:03;;;;;;;29.93;16.07;;;1.20;56.70;;;;;;5091572;28;20425;-51
2021/12/23 05:19:29;;;;;;;31.80;16.73;;;1.10;57.20;;;;;;5092407;28;20227;-54
2021/12/23 05:21:54;;;;;;;31.97;17.87;;;1.10;57.40;;;;;;5089601;28;20184;-52
2021/12/23 05:24:20;;;;;;;28.60;17.97;;;1.10;57.20;;;;;;5092336;28;20197;-53
2021/12/23 05:26:45;;;;;;;30.13;17.50;;;1.30;57.20;;;;;;5090606;28;20215;-55
2021/12/23 05:29:11;;;;;;;28.83;17.90;;;1.10;56.90;;;;;;5091746;28;20199;-53
2021/12/23 05:31:39;;;;;;;35.10;18.83;;;1.10;57.10;;;;;;5091041;28;20252;-54
2021/12/23 05:34:04;;;;;;;29.60;17.47;;;1.10;56.90;;;;;;5092137;28;20524;-53
2021/12/23 05:36:30;;;;;;;30.37;17.07;;;1.30;56.90;;;;;;5091029;28;20509;-54
2021/12/23 05:38:56;;;;;;;32.70;17.50;;;1.20;56.60;;;;;;5091890;28;20660;-53
2021/12/23 05:41:26;;;;;;;32.90;18.10;;;1.30;56.50;;;;;;5091269;28;20505;-54
2021/12/23 05:43:56;;;;;;;30.67;16.90;;;1.30;56.50;;;;;;5088479;28;20643;-54
2021/12/23 05:46:21;;;;;;;28.90;16.73;;;1.30;56.70;;;;;;5089768;28;20562;-51
2021/12/23 05:48:47;;;;;;;30.93;17.07;;;1.30;56.40;;;;;;5090109;28;20457;-51
2021/12/23 05:51:13;;;;;;;31.47;18.80;;;1.40;56.30;;;;;;5091306;28;20702;-51
2021/12/23 05:53:38;;;;;;;36.00;18.10;;;1.20;56.10;;;;;;5091302;28;20191;-53
2021/12/23 05:56:05;;;;;;;34.43;18.13;;;1.00;56.70;;;;;;5091174;28;20191;-52
2021/12/23 05:58:31;;;;;;;27.97;16.93;;;0.60;57.20;;;;;;5091446;28;20218;-54
2021/12/23 06:00:56;;;;;;;29.33;16.37;;;0.50;57.90;;;;;;5091105;28;20453;-51
2021/12/23 06:03:22;;;;;;;30.87;17.40;;;0.30;58.20;;;;;;5090964;28;20201;-51
2021/12/23 06:05:48;;;;;;;31.30;16.47;;;0.00;58.80;;;;;;5077571;28;20306;-53
2021/12/23 06:08:13;;;;;;;30.03;16.60;;;-0.20;59.80;;;;;;5091385;28;20198;-51
2021/12/23 06:10:39;;;;;;;31.67;16.50;;;-0.30;60.60;;;;;;5091051;28;20191;-51
2021/12/23 06:13:05;;;;;;;34.43;19.07;;;-0.30;60.90;;;;;;5089618;28;20612;-51
2021/12/23 06:15:30;;;;;;;34.20;17.13;;;-0.20;60.80;;;;;;5089168;28;20196;-54
2021/12/23 06:17:56;;;;;;;31.47;17.50;;;-0.10;60.30;;;;;;5091447;28;20195;-51
2021/12/23 06:20:22;;;;;;;28.67;17.40;;;0.00;60.10;;;;;;5090383;28;20713;-51
2021/12/23 06:22:47;;;;;;;33.60;18.00;;;0.00;60.00;;;;;;5090764;28;20187;-51
2021/12/23 06:25:13;;;;;;;31.50;18.73;;;0.10;59.90;;;;;;5090395;28;20253;-52
2021/12/23 06:27:41;;;;;;;34.23;17.30;;;0.20;59.40;;;;;;5091185;28;20195;-51
2021/12/23 06:30:19;;;;;;;32.70;16.63;;;0.10;59.50;;;;;;5090360;28;20425;-51
2021/12/23 06:32:47;;;;;;;30.63;17.23;;;0.00;60.00;;;;;;5090808;28;20520;-51
2021/12/23 06:35:14;;;;;;;34.07;16.97;;;0.00;60.00;;;;;;5090453;28;20421;-51
2021/12/23 06:37:40;;;;;;;36.20;19.63;;;0.10;60.10;;;;;;5091085;28;20421;-51
2021/12/23 06:40:06;;;;;;;30.43;16.87;;;0.10;59.60;;;;;;5090167;28;20493;-51
2021/12/23 06:42:32;;;;;;;32.77;16.03;;;0.10;59.40;;;;;;5085199;28;20203;-52
2021/12/23 06:44:58;;;;;;;31.70;18.13;;;0.00;59.60;;;;;;5089174;28;20469;-54
2021/12/23 06:47:23;;;;;;;31.60;17.30;;;0.20;59.80;;;;;;5090911;28;20190;-52
2021/12/23 06:49:49;;;;;;;40.30;17.30;;;0.30;59.50;;;;;;5090378;28;20670;-52
2021/12/23 06:52:15;;;;;;;26.47;15.00;;;0.40;59.00;;;;;;5090331;28;20202;-51
2021/12/23 06:54:48;;;;;;;33.73;16.63;;;0.50;58.60;;;;;;5090844;28;20263;-54
2021/12/23 06:57:14;;;;;;;28.10;16.97;;;0.60;58.50;;;;;;5090887;28;20190;-51
2021/12/23 06:59:40;;;;;;;29.00;15.60;;;0.60;58.50;;;;;;5091028;28;20417;-51
2021/12/23 07:02:06;;;;;;;29.03;16.10;;;0.60;58.30;;;;;;5090068;28;20424;-51
2021/12/23 07:04:33;;;;;;;32.70;16.30;;;0.70;58.40;;;;;;5090705;28;20417;-52
2021/12/23 07:07:10;;;;;;;32.27;16.37;;;0.90;58.00;;;;;;5090290;28;20533;-51
2021/12/23 07:09:42;;;;;;;30.37;16.27;;;1.30;57.50;;;;;;5088988;28;20920;-50
2021/12/23 07:12:10;;;;;;;27.23;15.00;;;1.30;56.50;;;;;;5089703;28;20489;-51
2021/12/23 07:14:36;;;;;;;28.50;15.60;;;1.20;56.90;;;;;;5090899;28;20420;-51
2021/12/23 07:17:02;;;;;;;32.47;16.37;;;1.40;56.50;;;;;;5090213;28;20425;-51
2021/12/23 07:19:28;;;;;;;29.67;15.80;;;1.10;56.40;;;;;;5089146;28;20590;-54
2021/12/23 07:21:54;;;;;;;27.30;16.40;;;1.00;56.80;;;;;;5088309;28;20433;-51
2021/12/23 07:24:20;;;;;;;29.83;15.90;;;0.90;57.10;;;;;;5090479;28;20195;-51
2021/12/23 07:26:46;;;;;;;30.83;16.03;;;1.10;57.30;;;;;;5089804;28;20252;-52
2021/12/23 07:29:11;;;;;;;33.53;19.10;;;1.40;57.00;;;;;;5090825;28;20935;-53
2021/12/23 07:31:37;;;;;;;31.13;18.73;;;1.80;56.40;;;;;;5089719;28;20266;-52
2021/12/23 07:34:02;;;;;;;29.30;16.50;;;1.60;55.70;;;;;;5089222;28;20199;-51
2021/12/23 07:36:28;;;;;;;31.80;17.53;;;1.60;56.00;;;;;;5088112;28;20214;-53
2021/12/23 07:38:55;;;;;;;29.60;18.80;;;1.40;55.90;;;;;;5090499;28;20188;-52
2021/12/23 07:41:21;;;;;;;27.13;16.93;;;1.00;56.60;;;;;;5089418;28;20270;-51
2021/12/23 07:44:03;;;;;;;31.97;18.03;;;1.00;57.30;;;;;;5086559;28;20554;-52
2021/12/23 07:46:31;;;;;;;27.83;15.63;;;0.90;57.40;;;;;;5089432;28;20984;-51
2021/12/23 07:48:57;;;;;;;30.90;15.90;;;0.90;57.90;;;;;;5090255;28;20586;-51
2021/12/23 07:51:24;;;;;;;28.60;16.23;;;0.90;57.90;;;;;;5091329;28;20991;-54
2021/12/23 07:53:50;;;;;;;28.80;15.80;;;0.90;57.90;;;;;;5094266;28;20199;-52
2021/12/23 07:56:16;;;;;;;28.67;17.20;;;1.00;57.70;;;;;;5093241;28;20424;-51
2021/12/23 07:58:43;;;;;;;28.93;16.20;;;1.00;57.50;;;;;;5094118;28;20772;-53
2021/12/23 08:01:09;;;;;;;27.10;17.33;;;1.00;57.60;;;;;;5093164;28;20420;-54
2021/12/23 08:03:34;;;;;;;28.07;15.23;;;1.00;57.50;;;;;;5091917;28;20432;-51
2021/12/23 08:06:00;;;;;;;24.70;15.53;;;1.20;57.40;;;;;;5092955;28;20279;-54
2021/12/23 08:08:26;;;;;;;29.87;16.37;;;1.30;57.00;;;;;;5093733;28;20694;-53
2021/12/23 08:10:52;;;;;;;28.70;16.10;;;1.10;56.80;;;;;;5093036;28;20429;-51
2021/12/23 08:13:17;;;;;;;27.00;17.43;;;0.90;57.70;;;;;;5093155;28;20191;-53
2021/12/23 08:15:43;;;;;;;35.73;18.97;;;1.00;58.10;;;;;;5093359;28;20215;-54
2021/12/23 08:18:09;;;;;;;34.27;17.90;;;1.20;57.90;;;;;;5093337;28;20427;-54
2021/12/23 08:20:35;;;;;;;33.80;18.57;;;1.40;57.50;;;;;;5092718;28;20242;-54
2021/12/23 08:23:01;;;;;;;35.97;19.33;;;1.40;57.30;;;;;;5093007;28;20457;-56
2021/12/23 08:25:27;;;;;;;32.47;18.27;;;1.70;57.30;;;;;;5092863;28;20624;-54
2021/12/23 08:27:53;;;;;;;31.50;17.40;;;1.80;56.80;;;;;;5093377;28;20231;-54
2021/12/23 08:30:20;;;;;;;30.93;18.03;;;2.00;56.50;;;;;;5091053;28;20469;-51
2021/12/23 08:32:47;;;;;;;33.87;18.10;;;2.00;56.40;;;;;;5092621;28;20788;-55
2021/12/23 08:35:14;;;;;;;27.37;15.43;;;2.30;56.10;;;;;;5092600;28;20433;-54
2021/12/23 08:37:45;;;;;;;30.13;16.93;;;2.40;55.70;;;;;;5093220;28;20417;-52
2021/12/23 08:40:13;;;;;;;24.83;16.07;;;2.40;55.70;;;;;;5092446;28;20429;-53
2021/12/23 08:42:38;;;;;;;26.53;16.83;;;2.60;55.70;;;;;;5088755;28;21099;-55
2021/12/23 08:45:07;;;;;;;27.53;17.13;;;2.60;55.40;;;;;;5092316;28;20485;-51
2021/12/23 08:47:33;;;;;;;34.10;18.97;;;2.70;55.60;;;;;;5093083;28;20834;-55
2021/12/23 08:49:59;;;;;;;34.77;19.20;;;2.90;55.50;;;;;;5092502;28;20460;-53
2021/12/23 08:52:25;;;;;;;39.30;21.53;;;3.10;55.00;;;;;;5092231;28;20836;-54
2021/12/23 08:54:50;;;;;;;32.03;19.00;;;3.20;54.60;;;;;;5091745;28;20421;-54
2021/12/23 08:57:16;;;;;;;30.40;18.83;;;3.30;54.60;;;;;;5091910;28;20195;-55
2021/12/23 08:59:42;;;;;;;28.53;17.57;;;3.50;54.60;;;;;;5092557;28;20191;-52
2021/12/23 09:02:08;;;;;;;27.80;15.63;;;3.60;54.30;;;;;;5091905;28;20249;-51
2021/12/23 09:04:35;;;;;;;27.37;16.50;;;3.70;54.10;;;;;;5092366;28;20191;-53
2021/12/23 09:07:01;;;;;;;35.10;18.33;;;3.70;53.90;;;;;;5091895;28;20843;-52
2021/12/23 09:09:30;;;;;;;27.90;17.73;;;3.60;54.10;;;;;;5092687;28;20836;-52
2021/12/23 09:11:56;;;;;;;39.33;19.10;;;3.50;54.10;;;;;;5091817;28;20468;-54
2021/12/23 09:14:22;;;;;;;31.67;17.27;;;3.70;54.30;;;;;;5092276;28;20783;-54
2021/12/23 09:16:48;;;;;;;32.63;19.87;;;3.60;54.30;;;;;;5091681;28;20705;-53
2021/12/23 09:19:14;;;;;;;33.57;18.87;;;3.80;54.50;;;;;;5092314;28;20646;-55
2021/12/23 09:21:40;;;;;;;29.83;18.27;;;4.00;54.20;;;;;;5090285;28;21003;-54
2021/12/23 09:24:06;;;;;;;36.40;18.13;;;3.80;54.20;;;;;;5092104;28;20897;-55
2021/12/23 09:26:36;;;;;;;31.30;18.33;;;3.80;54.70;;;;;;5091415;28;20484;-55
2021/12/23 09:34:13;;;;;;;28.30;18.00;;;4.00;54.30;;;;;;5092138;28;20524;-54
2021/12/23 09:36:40;;;;;;;27.77;16.20;;;4.00;54.20;;;;;;5091606;28;20429;-54
2021/12/23 09:39:08;;;;;;;35.23;18.17;;;3.90;54.20;;;;;;5091964;28;20943;-52
2021/12/23 09:41:37;;;;;;;29.90;18.30;;;3.90;55.10;;;;;;5091100;28;20551;-54
2021/12/23 09:44:05;;;;;;;30.53;19.30;;;3.90;55.00;;;;;;5088291;28;20421;-55
2021/12/23 09:46:34;;;;;;;34.70;20.40;;;4.00;54.90;;;;;;5090851;28;20545;-54
2021/12/23 09:49:01;;;;;;;28.03;18.60;;;4.10;54.80;;;;;;5090126;28;20432;-53
2021/12/23 09:51:29;;;;;;;28.03;16.30;;;3.80;54.60;;;;;;5090832;28;20432;-55
2021/12/23 09:53:57;;;;;;;24.97;16.77;;;3.80;55.30;;;;;;5091445;28;20436;-52
2021/12/23 09:56:25;;;;;;;29.10;18.67;;;4.00;55.30;;;;;;5091155;28;20914;-54
2021/12/23 09:58:51;;;;;;;29.47;18.40;;;4.10;55.00;;;;;;5091652;28;20421;-52
2021/12/23 10:01:17;;;;;;;30.83;18.60;;;4.20;54.90;;;;;;5090866;28;20994;-52
2021/12/23 10:03:43;;;;;;;33.07;18.77;;;4.00;54.70;;;;;;5091274;28;20414;-53
2021/12/23 10:06:09;;;;;;;33.30;18.97;;;4.10;55.40;;;;;;5091186;28;20479;-51
2021/12/23 10:08:35;;;;;;;35.43;20.70;;;4.20;55.40;;;;;;5091498;28;20573;-54
2021/12/23 10:11:14;;;;;;;32.43;19.07;;;4.10;56.00;;;;;;5090488;28;20467;-50
2021/12/23 10:38:50;;;;;;;25.33;17.40;;;5.70;54.20;;;;;;5091302;28;20513;-51
2021/12/23 10:41:17;;;;;;;31.23;16.50;;;5.60;54.10;;;;;;5089845;28;20508;-51
2021/12/23 10:43:51;;;;;;;25.77;16.03;;;5.60;54.20;;;;;;5086553;28;20425;-53
2021/12/23 10:46:30;;;;;;;28.73;16.23;;;5.90;54.10;;;;;;5090670;28;20491;-52
2021/12/23 10:49:29;;;;;;;25.83;17.97;;;5.90;53.90;;;;;;5090907;28;20528;-53
2021/12/23 10:58:01;;;;;;;25.73;15.50;;;5.90;54.30;;;;;;5090897;28;20474;-51
2021/12/23 11:00:27;;;;;;;25.47;15.00;;;6.10;53.90;;;;;;5090544;28;20498;-52
2021/12/23 11:06:08;;;;;;;21.13;12.40;;;6.30;53.70;;;;;;5090193;28;20495;-52
2021/12/23 11:28:47;;;;;;;19.93;13.63;;;7.20;52.70;;;;;;5094648;28;20473;-55
2021/12/23 11:42:17;;;;;;;17.80;10.73;;;7.60;52.30;;;;;;5093364;28;20516;-52
2021/12/23 11:44:36;;;;;;;15.80;10.40;;;7.80;52.00;;;;;;5092410;28;20429;-52
2021/12/23 11:47:09;;;;;;;18.13;10.73;;;7.90;51.90;;;;;;5093829;28;20834;-51
2021/12/23 11:49:38;;;;;;;15.37;10.57;;;8.10;51.70;;;;;;5093784;28;20264;-54
2021/12/23 11:52:04;;;;;;;14.93;10.97;;;8.20;51.40;;;;;;5093078;28;20947;-53
2021/12/23 11:54:35;;;;;;;16.70;10.67;;;8.10;51.60;;;;;;5094149;28;20425;-52
2021/12/23 11:57:10;;;;;;;14.97;10.17;;;8.30;51.60;;;;;;5093524;28;20418;-53
2021/12/23 11:59:40;;;;;;;18.87;11.03;;;8.40;51.30;;;;;;5093771;28;20442;-51
2021/12/23 12:02:20;;;;;;;17.63;11.03;;;8.50;51.10;;;;;;5091236;28;20854;-51
2021/12/23 12:04:49;;;;;;;18.23;11.30;;;8.60;50.80;;;;;;5093364;28;20418;-51
2021/12/23 12:07:20;;;;;;;20.30;12.27;;;8.70;50.70;;;;;;5093852;28;20449;-52
2021/12/23 12:10:12;;;;;;;18.03;11.23;;;8.50;50.90;;;;;;5092866;28;20944;-52
2021/12/23 12:13:00;;;;;;;14.80;10.77;;;8.60;51.20;;;;;;5077054;28;20445;-52
2021/12/23 12:15:37;;;;;;;16.80;10.90;;;8.70;51.00;;;;;;5092845;28;20453;-52
2021/12/23 12:18:09;;;;;;;17.50;10.10;;;8.80;50.60;;;;;;5093920;28;20444;-53
2021/12/23 12:20:47;;;;;;;18.67;11.07;;;8.90;50.40;;;;;;5092872;28;20932;-52
2021/12/23 12:23:32;;;;;;;16.00;10.50;;;9.10;50.20;;;;;;5093353;28;20785;-53
2021/12/23 12:26:23;;;;;;;15.40;11.10;;;9.20;50.00;;;;;;5092711;28;20476;-52
2021/12/23 12:28:50;;;;;;;17.93;11.27;;;9.20;49.80;;;;;;5088722;28;20904;-53
2021/12/23 12:31:25;;;;;;;14.83;10.27;;;9.30;49.70;;;;;;5092369;28;20429;-52
2021/12/23 12:34:06;;;;;;;18.00;11.63;;;9.30;49.80;;;;;;5093265;28;20433;-54
2021/12/23 12:36:39;;;;;;;16.60;10.50;;;9.40;49.60;;;;;;5091842;28;20453;-54
2021/12/23 12:39:07;;;;;;;14.00;9.77;;;9.40;49.70;;;;;;5093034;28;20437;-53
2021/12/23 12:41:38;;;;;;;17.07;11.00;;;9.50;49.70;;;;;;5092018;28;20794;-53
2021/12/23 12:44:16;;;;;;;14.50;10.70;;;9.60;49.40;;;;;;5089119;28;20464;-51
2021/12/23 12:46:45;;;;;;;19.23;11.53;;;9.70;49.50;;;;;;5092603;28;20530;-55
2021/12/23 12:49:29;;;;;;;13.60;10.43;;;9.70;49.30;;;;;;5092577;28;20465;-54
2021/12/23 12:52:08;;;;;;;20.70;15.10;;;9.80;49.40;;;;;;5091862;28;20441;-51
2021/12/23 12:54:49;;;;;;;20.43;12.20;;;9.80;49.10;;;;;;5092816;28;20422;-53
2021/12/23 12:57:18;;;;;;;18.57;12.00;;;9.80;48.70;;;;;;5091840;28;20436;-53
2021/12/23 12:59:46;;;;;;;18.10;13.07;;;9.80;48.80;;;;;;5092215;28;20417;-52
2021/12/23 13:02:32;;;;;;;22.80;12.93;;;9.80;49.00;;;;;;5092326;28;21241;-51
2021/12/23 13:05:01;;;;;;;18.50;11.80;;;9.90;49.00;;;;;;5092016;28;20438;-52
2021/12/23 13:07:38;;;;;;;24.53;12.87;;;9.90;48.80;;;;;;5092592;28;20499;-55
2021/12/23 13:10:12;;;;;;;17.20;11.67;;;10.00;47.90;;;;;;5091777;28;20441;-55
2021/12/23 13:12:56;;;;;;;19.83;12.10;;;10.00;47.70;;;;;;5092141;28;20433;-55
2021/12/23 13:15:28;;;;;;;21.60;13.90;;;10.10;47.70;;;;;;5091786;28;20433;-53
2021/12/23 13:17:56;;;;;;;23.73;12.80;;;10.10;47.50;;;;;;5092397;28;20424;-52
2021/12/23 13:20:50;;;;;;;20.60;13.30;;;10.00;47.30;;;;;;5091890;28;20473;-52
2021/12/23 13:23:21;;;;;;;20.53;13.50;;;10.10;47.70;;;;;;5090637;28;20425;-52
2021/12/23 13:25:49;;;;;;;19.23;13.00;;;10.00;47.70;;;;;;5092014;28;20872;-52
2021/12/23 13:28:34;;;;;;;17.30;12.43;;;10.10;47.60;;;;;;5092468;28;20437;-54
2021/12/23 13:31:01;;;;;;;16.50;11.70;;;10.20;47.40;;;;;;5091262;28;20421;-53
2021/12/23 13:33:27;;;;;;;21.53;12.20;;;10.00;47.50;;;;;;5092105;28;20432;-51
2021/12/23 13:35:54;;;;;;;15.50;11.53;;;9.90;48.50;;;;;;5091374;28;20425;-53
2021/12/23 13:38:51;;;;;;;19.53;13.40;;;9.90;48.60;;;;;;5092008;28;20191;-52
2021/12/23 13:41:23;;;;;;;17.90;11.50;;;10.00;47.90;;;;;;5086112;28;20442;-55
2021/12/23 13:43:49;;;;;;;14.00;9.83;;;10.00;47.80;;;;;;5088348;28;20457;-54
2021/12/23 13:46:16;;;;;;;14.50;9.10;;;9.90;48.80;;;;;;5091228;28;20531;-54
2021/12/23 13:49:08;;;;;;;13.33;9.00;;;10.00;47.90;;;;;;5089320;28;20239;-52
2021/12/23 13:51:37;;;;;;;14.73;8.93;;;9.90;48.80;;;;;;5089469;28;20443;-53
2021/12/23 13:54:15;;;;;;;14.80;10.60;;;9.90;48.70;;;;;;5091606;28;20528;-52
2021/12/23 13:56:46;;;;;;;14.60;9.77;;;10.00;47.80;;;;;;5091362;28;20452;-52
2021/12/23 13:59:22;;;;;;;10.87;8.47;;;10.00;47.60;;;;;;5091745;28;20424;-52